sensor_id;sensor_type;location;lat;lon;timestamp;pressure;altitude;pressure_sealevel;temperature;humidity
21547;BME280;41275;51.912;4.388;2023-05-15T00:02:31;101623.25;;;16.91;53.40
21547;BME280;41275;51.912;4.388;2023-05-15T00:07:55;101620.63;;;16.97;53.43
21547;BME280;41275;51.912;4.388;2023-05-15T00:13:16;101601.59;;;16.93;53.94
21547;BME280;41275;51.912;4.388;2023-05-15T00:18:38;101608.59;;;16.94;54.43
21547;BME280;41275;51.912;4.388;2023-05-15T00:24:00;101603.16;;;16.89;54.02
21547;BME280;41275;51.912;4.388;2023-05-15T00:29:21;101602.31;;;16.83;54.29
21547;BME280;41275;51.912;4.388;2023-05-15T00:34:43;101600.38;;;16.79;54.23
21547;BME280;41275;51.912;4.388;2023-05-15T00:40:05;101595.19;;;16.72;54.32
21547;BME280;41275;51.912;4.388;2023-05-15T00:45:27;101593.19;;;16.62;54.73
21547;BME280;41275;51.912;4.388;2023-05-15T00:50:49;101599.59;;;16.61;54.62
21547;BME280;41275;51.912;4.388;2023-05-15T00:56:11;101584.03;;;16.58;54.44
21547;BME280;41275;51.912;4.388;2023-05-15T01:01:33;101576.03;;;16.58;54.66
21547;BME280;41275;51.912;4.388;2023-05-15T01:06:54;101578.22;;;16.61;54.74
21547;BME280;41275;51.912;4.388;2023-05-15T01:12:17;101579.28;;;16.60;54.55
21547;BME280;41275;51.912;4.388;2023-05-15T01:17:39;101576.28;;;16.57;54.55
21547;BME280;41275;51.912;4.388;2023-05-15T01:30:05;101570.63;;;16.53;54.78
21547;BME280;41275;51.912;4.388;2023-05-15T01:35:49;101570.06;;;16.51;55.02
21547;BME280;41275;51.912;4.388;2023-05-15T01:46:51;101582.31;;;16.47;55.15
21547;BME280;41275;51.912;4.388;2023-05-15T01:52:23;101587.06;;;16.45;55.19
21547;BME280;41275;51.912;4.388;2023-05-15T01:57:47;101586.03;;;16.46;54.94
21547;BME280;41275;51.912;4.388;2023-05-15T02:03:10;101577.50;;;16.49;54.78
21547;BME280;41275;51.912;4.388;2023-05-15T02:08:31;101567.91;;;16.48;54.36
21547;BME280;41275;51.912;4.388;2023-05-15T02:13:55;101567.09;;;16.48;55.01
21547;BME280;41275;51.912;4.388;2023-05-15T02:19:17;101561.00;;;16.52;54.75
21547;BME280;41275;51.912;4.388;2023-05-15T02:24:38;101561.84;;;16.58;54.59
21547;BME280;41275;51.912;4.388;2023-05-15T02:30:16;101554.72;;;16.63;54.89
21547;BME280;41275;51.912;4.388;2023-05-15T02:35:51;101554.53;;;16.70;54.07
21547;BME280;41275;51.912;4.388;2023-05-15T02:41:15;101561.03;;;16.74;54.53
21547;BME280;41275;51.912;4.388;2023-05-15T02:46:37;101549.34;;;16.80;54.78
21547;BME280;41275;51.912;4.388;2023-05-15T02:51:59;101542.38;;;16.79;54.23
21547;BME280;41275;51.912;4.388;2023-05-15T02:57:21;101550.09;;;16.76;54.55
21547;BME280;41275;51.912;4.388;2023-05-15T03:02:42;101539.53;;;16.69;54.53
21547;BME280;41275;51.912;4.388;2023-05-15T03:08:04;101555.91;;;16.73;54.43
21547;BME280;41275;51.912;4.388;2023-05-15T03:13:25;101546.34;;;16.77;54.52
21547;BME280;41275;51.912;4.388;2023-05-15T03:18:46;101544.00;;;16.80;54.18
21547;BME280;41275;51.912;4.388;2023-05-15T03:24:08;101538.38;;;16.82;54.23
21547;BME280;41275;51.912;4.388;2023-05-15T03:29:29;101543.84;;;16.92;54.15
21547;BME280;41275;51.912;4.388;2023-05-15T03:34:50;101556.00;;;17.05;54.31
21547;BME280;41275;51.912;4.388;2023-05-15T03:40:12;101565.81;;;17.21;53.94
21547;BME280;41275;51.912;4.388;2023-05-15T03:45:33;101573.09;;;17.26;53.90
21547;BME280;41275;51.912;4.388;2023-05-15T03:50:55;101573.13;;;17.31;53.58
21547;BME280;41275;51.912;4.388;2023-05-15T03:56:16;101572.38;;;17.35;53.52
21547;BME280;41275;51.912;4.388;2023-05-15T04:01:37;101568.41;;;17.38;53.72
21547;BME280;41275;51.912;4.388;2023-05-15T04:06:59;101570.59;;;17.46;53.78
21547;BME280;41275;51.912;4.388;2023-05-15T04:12:20;101568.00;;;17.56;53.59
21547;BME280;41275;51.912;4.388;2023-05-15T04:17:43;101559.78;;;17.63;53.42
21547;BME280;41275;51.912;4.388;2023-05-15T04:23:05;101561.22;;;17.76;53.27
21547;BME280;41275;51.912;4.388;2023-05-15T04:28:26;101558.09;;;17.84;53.48
21547;BME280;41275;51.912;4.388;2023-05-15T04:33:47;101548.44;;;17.83;53.03
21547;BME280;41275;51.912;4.388;2023-05-15T04:39:08;101554.09;;;17.86;52.93
21547;BME280;41275;51.912;4.388;2023-05-15T04:44:29;101555.19;;;17.90;52.81
21547;BME280;41275;51.912;4.388;2023-05-15T04:49:52;101551.53;;;18.02;52.73
21547;BME280;41275;51.912;4.388;2023-05-15T04:55:13;101553.19;;;18.13;52.40
21547;BME280;41275;51.912;4.388;2023-05-15T05:00:34;101559.66;;;18.17;52.26
21547;BME280;41275;51.912;4.388;2023-05-15T05:05:55;101553.50;;;18.17;51.72
21547;BME280;41275;51.912;4.388;2023-05-15T05:11:16;101554.59;;;18.26;51.59
21547;BME280;41275;51.912;4.388;2023-05-15T05:16:38;101553.09;;;18.45;51.33
21547;BME280;41275;51.912;4.388;2023-05-15T05:21:59;101554.06;;;18.81;50.97
21547;BME280;41275;51.912;4.388;2023-05-15T05:27:26;101541.50;;;18.92;50.41
21547;BME280;41275;51.912;4.388;2023-05-15T05:32:47;101536.38;;;18.80;50.40
21547;BME280;41275;51.912;4.388;2023-05-15T05:38:08;101537.97;;;18.81;50.25
21547;BME280;41275;51.912;4.388;2023-05-15T05:43:30;101531.28;;;18.84;50.29
21547;BME280;41275;51.912;4.388;2023-05-15T05:48:51;101535.84;;;18.94;50.26
21547;BME280;41275;51.912;4.388;2023-05-15T05:54:12;101525.44;;;19.07;49.88
21547;BME280;41275;51.912;4.388;2023-05-15T05:59:34;101521.97;;;19.22;49.70
21547;BME280;41275;51.912;4.388;2023-05-15T06:04:57;101518.50;;;19.22;49.61
21547;BME280;41275;51.912;4.388;2023-05-15T06:10:18;101508.81;;;19.36;49.41
21547;BME280;41275;51.912;4.388;2023-05-15T06:15:40;101524.94;;;19.67;48.95
21547;BME280;41275;51.912;4.388;2023-05-15T06:21:01;101524.91;;;19.92;48.45
21547;BME280;41275;51.912;4.388;2023-05-15T06:26:23;101531.63;;;19.90;48.26
21547;BME280;41275;51.912;4.388;2023-05-15T06:31:45;101524.38;;;19.95;47.89
21547;BME280;41275;51.912;4.388;2023-05-15T06:37:06;101533.22;;;20.01;47.94
21547;BME280;41275;51.912;4.388;2023-05-15T06:42:28;101531.59;;;20.10;47.79
21547;BME280;41275;51.912;4.388;2023-05-15T06:47:49;101533.66;;;20.33;47.41
21547;BME280;41275;51.912;4.388;2023-05-15T06:53:10;101534.50;;;20.29;47.39
21547;BME280;41275;51.912;4.388;2023-05-15T06:58:31;101523.16;;;20.42;47.01
21547;BME280;41275;51.912;4.388;2023-05-15T07:03:52;101522.50;;;20.76;46.67
21547;BME280;41275;51.912;4.388;2023-05-15T07:09:14;101531.16;;;20.68;46.34
21547;BME280;41275;51.912;4.388;2023-05-15T07:14:35;101528.50;;;20.57;46.76
21547;BME280;41275;51.912;4.388;2023-05-15T07:19:56;101534.59;;;20.73;46.75
21547;BME280;41275;51.912;4.388;2023-05-15T07:25:17;101545.69;;;20.62;46.74
21547;BME280;41275;51.912;4.388;2023-05-15T07:30:40;101553.44;;;20.73;46.46
21547;BME280;41275;51.912;4.388;2023-05-15T07:36:01;101549.50;;;20.55;46.86
21547;BME280;41275;51.912;4.388;2023-05-15T07:41:22;101548.66;;;20.55;46.99
21547;BME280;41275;51.912;4.388;2023-05-15T07:46:43;101546.00;;;20.45;47.22
21547;BME280;41275;51.912;4.388;2023-05-15T07:52:05;101552.66;;;20.63;47.40
21547;BME280;41275;51.912;4.388;2023-05-15T07:57:26;101549.50;;;20.55;47.70
21547;BME280;41275;51.912;4.388;2023-05-15T08:02:47;101551.19;;;20.10;48.39
21547;BME280;41275;51.912;4.388;2023-05-15T08:08:09;101554.69;;;20.11;49.00
21547;BME280;41275;51.912;4.388;2023-05-15T08:13:30;101554.97;;;20.09;49.43
21547;BME280;41275;51.912;4.388;2023-05-15T08:18:51;101560.88;;;20.11;49.70
21547;BME280;41275;51.912;4.388;2023-05-15T08:24:21;101560.91;;;20.01;49.96
21547;BME280;41275;51.912;4.388;2023-05-15T08:29:42;101556.88;;;19.99;50.11
21547;BME280;41275;51.912;4.388;2023-05-15T08:35:03;101558.50;;;19.95;50.33
21547;BME280;41275;51.912;4.388;2023-05-15T08:40:25;101565.22;;;19.87;50.46
21547;BME280;41275;51.912;4.388;2023-05-15T08:45:48;101566.03;;;19.72;50.92
21547;BME280;41275;51.912;4.388;2023-05-15T08:51:09;101566.03;;;19.72;51.20
21547;BME280;41275;51.912;4.388;2023-05-15T08:56:31;101574.38;;;19.81;51.47
21547;BME280;41275;51.912;4.388;2023-05-15T09:01:52;101575.66;;;20.09;51.16
21547;BME280;41275;51.912;4.388;2023-05-15T09:07:14;101576.75;;;20.03;50.97
21547;BME280;41275;51.912;4.388;2023-05-15T09:12:40;101581.56;;;20.21;50.98
21547;BME280;41275;51.912;4.388;2023-05-15T09:18:02;101571.53;;;20.42;50.79
21547;BME280;41275;51.912;4.388;2023-05-15T09:23:25;101573.59;;;20.71;50.36
21547;BME280;41275;51.912;4.388;2023-05-15T09:28:47;101575.72;;;20.84;49.58
21547;BME280;41275;51.912;4.388;2023-05-15T09:34:08;101579.03;;;21.10;48.84
21547;BME280;41275;51.912;4.388;2023-05-15T09:39:30;101577.53;;;20.99;48.58
21547;BME280;41275;51.912;4.388;2023-05-15T09:44:51;101571.31;;;20.98;48.16
21547;BME280;41275;51.912;4.388;2023-05-15T09:50:19;101580.28;;;20.83;48.29
21547;BME280;41275;51.912;4.388;2023-05-15T09:55:41;101585.44;;;20.70;48.43
21547;BME280;41275;51.912;4.388;2023-05-15T10:01:09;101585.69;;;20.73;48.60
21547;BME280;41275;51.912;4.388;2023-05-15T10:06:37;101590.25;;;20.78;48.37
21547;BME280;41275;51.912;4.388;2023-05-15T10:11:59;101597.81;;;20.76;48.26
21547;BME280;41275;51.912;4.388;2023-05-15T10:17:20;101600.03;;;20.53;48.19
21547;BME280;41275;51.912;4.388;2023-05-15T10:22:45;101598.47;;;20.27;48.62
21547;BME280;41275;51.912;4.388;2023-05-15T10:28:08;101603.25;;;20.61;48.29
21547;BME280;41275;51.912;4.388;2023-05-15T10:33:30;101601.75;;;20.94;47.84
21547;BME280;41275;51.912;4.388;2023-05-15T10:38:52;101601.66;;;21.53;47.27
21547;BME280;41275;51.912;4.388;2023-05-15T10:44:14;101594.16;;;21.50;46.37
21547;BME280;41275;51.912;4.388;2023-05-15T10:49:35;101592.47;;;21.94;45.74
21547;BME280;41275;51.912;4.388;2023-05-15T10:54:57;101602.25;;;21.45;45.47
21547;BME280;41275;51.912;4.388;2023-05-15T11:06:09;101599.41;;;20.77;47.04
21547;BME280;41275;51.912;4.388;2023-05-15T11:11:59;101608.44;;;21.01;46.54
21547;BME280;41275;51.912;4.388;2023-05-15T11:17:24;101612.78;;;20.92;46.84
21547;BME280;41275;51.912;4.388;2023-05-15T11:22:56;101609.00;;;20.93;47.05
21547;BME280;41275;51.912;4.388;2023-05-15T11:28:22;101614.22;;;20.69;47.80
21547;BME280;41275;51.912;4.388;2023-05-15T11:33:49;101614.81;;;20.51;47.10
21547;BME280;41275;51.912;4.388;2023-05-15T11:39:10;101618.31;;;20.41;47.16
21547;BME280;41275;51.912;4.388;2023-05-15T11:44:32;101620.78;;;20.32;46.92
21547;BME280;41275;51.912;4.388;2023-05-15T11:49:53;101608.69;;;20.15;47.10
21547;BME280;41275;51.912;4.388;2023-05-15T11:55:16;101617.03;;;19.88;47.01
21547;BME280;41275;51.912;4.388;2023-05-15T12:00:39;101620.00;;;19.91;47.33
21547;BME280;41275;51.912;4.388;2023-05-15T12:06:01;101631.28;;;20.14;47.10
21547;BME280;41275;51.912;4.388;2023-05-15T12:11:23;101625.09;;;20.28;46.65
21547;BME280;41275;51.912;4.388;2023-05-15T12:16:44;101629.38;;;20.40;46.45
21547;BME280;41275;51.912;4.388;2023-05-15T12:22:06;101621.59;;;20.23;46.20
21547;BME280;41275;51.912;4.388;2023-05-15T12:27:28;101614.63;;;20.17;46.47
21547;BME280;41275;51.912;4.388;2023-05-15T12:32:49;101628.56;;;20.24;46.13
21547;BME280;41275;51.912;4.388;2023-05-15T12:38:14;101621.28;;;20.45;45.77
21547;BME280;41275;51.912;4.388;2023-05-15T12:43:36;101619.31;;;20.76;44.85
21547;BME280;41275;51.912;4.388;2023-05-15T12:48:57;101634.06;;;20.89;44.12
21547;BME280;41275;51.912;4.388;2023-05-15T12:54:19;101633.63;;;20.61;44.15
21547;BME280;41275;51.912;4.388;2023-05-15T12:59:40;101627.97;;;20.68;44.13
21547;BME280;41275;51.912;4.388;2023-05-15T13:05:02;101636.06;;;20.52;44.18
21547;BME280;41275;51.912;4.388;2023-05-15T13:10:25;101645.81;;;19.82;44.98
21547;BME280;41275;51.912;4.388;2023-05-15T13:15:47;101639.56;;;19.46;47.00
21547;BME280;41275;51.912;4.388;2023-05-15T13:21:08;101646.72;;;19.20;48.02
21547;BME280;41275;51.912;4.388;2023-05-15T13:26:30;101659.13;;;19.31;48.43
21547;BME280;41275;51.912;4.388;2023-05-15T13:31:51;101655.88;;;19.29;48.75
21547;BME280;41275;51.912;4.388;2023-05-15T13:37:14;101659.41;;;19.34;48.87
21547;BME280;41275;51.912;4.388;2023-05-15T13:42:40;101654.59;;;19.52;48.84
21547;BME280;41275;51.912;4.388;2023-05-15T13:48:01;101656.25;;;19.63;48.35
21547;BME280;41275;51.912;4.388;2023-05-15T13:53:24;101655.44;;;19.73;48.29
21547;BME280;41275;51.912;4.388;2023-05-15T13:58:45;101656.53;;;19.61;48.23
21547;BME280;41275;51.912;4.388;2023-05-15T14:04:06;101657.81;;;19.59;47.54
21547;BME280;41275;51.912;4.388;2023-05-15T14:09:27;101660.81;;;19.63;48.07
21547;BME280;41275;51.912;4.388;2023-05-15T14:14:48;101666.47;;;19.66;47.54
21547;BME280;41275;51.912;4.388;2023-05-15T14:20:10;101658.69;;;19.70;47.52
21547;BME280;41275;51.912;4.388;2023-05-15T14:25:31;101666.13;;;19.47;47.25
21547;BME280;41275;51.912;4.388;2023-05-15T14:30:52;101659.09;;;19.26;48.18
21547;BME280;41275;51.912;4.388;2023-05-15T14:36:14;101682.41;;;19.15;48.48
21547;BME280;41275;51.912;4.388;2023-05-15T14:41:35;101675.50;;;19.34;48.45
21547;BME280;41275;51.912;4.388;2023-05-15T14:47:11;101676.59;;;19.38;48.16
21547;BME280;41275;51.912;4.388;2023-05-15T14:52:33;101670.97;;;19.50;47.87
21547;BME280;41275;51.912;4.388;2023-05-15T14:57:54;101671.31;;;19.74;47.39
21547;BME280;41275;51.912;4.388;2023-05-15T15:03:15;101670.94;;;19.45;47.29
21547;BME280;41275;51.912;4.388;2023-05-15T15:08:36;101691.53;;;19.14;47.53
21547;BME280;41275;51.912;4.388;2023-05-15T15:13:58;101706.78;;;19.08;47.72
21547;BME280;41275;51.912;4.388;2023-05-15T15:19:19;101679.94;;;19.03;47.68
21547;BME280;41275;51.912;4.388;2023-05-15T15:24:41;101683.38;;;18.94;47.67
21547;BME280;41275;51.912;4.388;2023-05-15T15:30:03;101695.06;;;18.72;47.79
21547;BME280;41275;51.912;4.388;2023-05-15T15:35:25;101688.56;;;18.26;48.91
21547;BME280;41275;51.912;4.388;2023-05-15T15:40:46;101690.75;;;18.29;49.78
21547;BME280;41275;51.912;4.388;2023-05-15T15:46:07;101693.59;;;18.54;49.73
21547;BME280;41275;51.912;4.388;2023-05-15T15:51:28;101703.47;;;18.49;49.70
21547;BME280;41275;51.912;4.388;2023-05-15T15:56:50;101716.69;;;18.60;50.04
21547;BME280;41275;51.912;4.388;2023-05-15T16:02:12;101714.28;;;18.59;49.77
21547;BME280;41275;51.912;4.388;2023-05-15T16:07:33;101729.06;;;18.29;50.35
21547;BME280;41275;51.912;4.388;2023-05-15T16:12:54;101732.72;;;18.18;50.32
21547;BME280;41275;51.912;4.388;2023-05-15T16:18:16;101724.00;;;18.01;50.37
21547;BME280;41275;51.912;4.388;2023-05-15T16:23:38;101731.53;;;18.04;50.74
21547;BME280;41275;51.912;4.388;2023-05-15T16:29:02;101742.31;;;18.14;50.88
21547;BME280;41275;51.912;4.388;2023-05-15T16:34:24;101754.72;;;18.20;50.28
21547;BME280;41275;51.912;4.388;2023-05-15T16:39:45;101754.09;;;18.13;49.86
21547;BME280;41275;51.912;4.388;2023-05-15T16:45:07;101770.69;;;18.10;49.64
21547;BME280;41275;51.912;4.388;2023-05-15T16:50:30;101751.13;;;18.09;48.84
21547;BME280;41275;51.912;4.388;2023-05-15T16:55:51;101758.34;;;18.09;48.41
21547;BME280;41275;51.912;4.388;2023-05-15T17:01:13;101759.94;;;18.05;47.73
21547;BME280;41275;51.912;4.388;2023-05-15T17:06:34;101765.00;;;18.06;47.71
21547;BME280;41275;51.912;4.388;2023-05-15T17:11:55;101757.09;;;18.17;47.20
21547;BME280;41275;51.912;4.388;2023-05-15T17:17:16;101766.16;;;18.15;46.83
21547;BME280;41275;51.912;4.388;2023-05-15T17:22:38;101780.44;;;18.21;46.31
21547;BME280;41275;51.912;4.388;2023-05-15T17:27:59;101777.19;;;18.19;45.94
21547;BME280;41275;51.912;4.388;2023-05-15T17:33:20;101788.19;;;18.23;45.56
21547;BME280;41275;51.912;4.388;2023-05-15T17:38:41;101797.78;;;18.13;45.48
21547;BME280;41275;51.912;4.388;2023-05-15T17:44:03;101803.09;;;18.08;45.23
21547;BME280;41275;51.912;4.388;2023-05-15T17:49:24;101807.72;;;17.91;45.46
21547;BME280;41275;51.912;4.388;2023-05-15T17:54:46;101822.22;;;17.95;45.11
21547;BME280;41275;51.912;4.388;2023-05-15T18:00:07;101829.94;;;17.91;44.73
21547;BME280;41275;51.912;4.388;2023-05-15T18:05:29;101821.66;;;17.93;44.79
21547;BME280;41275;51.912;4.388;2023-05-15T18:10:50;101825.81;;;17.84;44.60
21547;BME280;41275;51.912;4.388;2023-05-15T18:16:11;101838.38;;;17.78;44.75
21547;BME280;41275;51.912;4.388;2023-05-15T18:21:32;101848.81;;;17.80;45.21
21547;BME280;41275;51.912;4.388;2023-05-15T18:26:54;101853.66;;;17.83;44.67
21547;BME280;41275;51.912;4.388;2023-05-15T18:32:15;101852.56;;;17.79;44.41
21547;BME280;41275;51.912;4.388;2023-05-15T18:37:36;101850.75;;;17.84;44.30
21547;BME280;41275;51.912;4.388;2023-05-15T18:42:58;101870.53;;;17.83;44.46
21547;BME280;41275;51.912;4.388;2023-05-15T18:48:19;101869.34;;;17.74;44.66
21547;BME280;41275;51.912;4.388;2023-05-15T18:53:40;101871.22;;;17.74;44.48
21547;BME280;41275;51.912;4.388;2023-05-15T18:59:01;101874.47;;;17.76;44.18
21547;BME280;41275;51.912;4.388;2023-05-15T19:04:23;101880.78;;;17.70;43.93
21547;BME280;41275;51.912;4.388;2023-05-15T19:09:44;101890.19;;;17.72;43.92
21547;BME280;41275;51.912;4.388;2023-05-15T19:15:06;101889.31;;;17.66;43.44
21547;BME280;41275;51.912;4.388;2023-05-15T19:20:27;101896.78;;;17.64;43.78
21547;BME280;41275;51.912;4.388;2023-05-15T19:25:49;101889.47;;;17.60;43.67
21547;BME280;41275;51.912;4.388;2023-05-15T19:31:10;101908.81;;;17.62;44.07
21547;BME280;41275;51.912;4.388;2023-05-15T19:36:31;101908.81;;;17.62;43.72
21547;BME280;41275;51.912;4.388;2023-05-15T19:41:52;101904.75;;;17.59;43.56
21547;BME280;41275;51.912;4.388;2023-05-15T19:47:15;101902.81;;;17.55;43.17
21547;BME280;41275;51.912;4.388;2023-05-15T19:52:36;101929.72;;;17.48;43.43
21547;BME280;41275;51.912;4.388;2023-05-15T19:57:58;101913.88;;;17.25;43.95
21547;BME280;41275;51.912;4.388;2023-05-15T20:03:19;101935.94;;;16.98;44.22
21547;BME280;41275;51.912;4.388;2023-05-15T20:08:40;101943.44;;;16.84;44.04
21547;BME280;41275;51.912;4.388;2023-05-15T20:14:02;101937.75;;;16.81;44.19
21547;BME280;41275;51.912;4.388;2023-05-15T20:19:23;101945.53;;;16.82;44.01
21547;BME280;41275;51.912;4.388;2023-05-15T20:24:44;101947.81;;;16.90;44.13
21547;BME280;41275;51.912;4.388;2023-05-15T20:30:06;101954.72;;;16.86;44.59
21547;BME280;41275;51.912;4.388;2023-05-15T20:35:27;101963.22;;;16.72;44.34
21547;BME280;41275;51.912;4.388;2023-05-15T20:40:49;101964.41;;;16.64;44.59
21547;BME280;41275;51.912;4.388;2023-05-15T20:46:11;101974.31;;;16.63;44.77
21547;BME280;41275;51.912;4.388;2023-05-15T20:51:32;101976.47;;;16.78;44.30
21547;BME280;41275;51.912;4.388;2023-05-15T20:56:53;101983.19;;;16.81;44.38
21547;BME280;41275;51.912;4.388;2023-05-15T21:02:14;101987.75;;;16.80;44.87
21547;BME280;41275;51.912;4.388;2023-05-15T21:07:36;101983.91;;;16.76;44.74
21547;BME280;41275;51.912;4.388;2023-05-15T21:12:57;101982.31;;;16.63;44.86
21547;BME280;41275;51.912;4.388;2023-05-15T21:18:19;101988.84;;;16.56;44.81
21547;BME280;41275;51.912;4.388;2023-05-15T21:23:40;101997.25;;;16.48;45.18
21547;BME280;41275;51.912;4.388;2023-05-15T21:29:02;101993.09;;;16.40;44.65
21547;BME280;41275;51.912;4.388;2023-05-15T21:34:23;102003.09;;;16.33;44.81
21547;BME280;41275;51.912;4.388;2023-05-15T21:39:45;101992.78;;;16.25;44.70
21547;BME280;41275;51.912;4.388;2023-05-15T21:45:06;102007.03;;;16.18;44.93
21547;BME280;41275;51.912;4.388;2023-05-15T21:50:27;102005.53;;;16.11;44.87
21547;BME280;41275;51.912;4.388;2023-05-15T21:55:48;102008.94;;;16.06;45.38
21547;BME280;41275;51.912;4.388;2023-05-15T22:01:12;102013.09;;;16.02;45.19
21547;BME280;41275;51.912;4.388;2023-05-15T22:06:34;102016.03;;;16.01;44.88
21547;BME280;41275;51.912;4.388;2023-05-15T22:11:55;102011.25;;;15.91;45.26
21547;BME280;41275;51.912;4.388;2023-05-15T22:17:17;102023.78;;;15.90;45.30
21547;BME280;41275;51.912;4.388;2023-05-15T22:22:40;102028.78;;;15.87;45.26
21547;BME280;41275;51.912;4.388;2023-05-15T22:28:02;102031.69;;;15.85;45.85
21547;BME280;41275;51.912;4.388;2023-05-15T22:33:23;102029.72;;;15.81;45.89
21547;BME280;41275;51.912;4.388;2023-05-15T22:38:44;102032.25;;;15.76;45.93
21547;BME280;41275;51.912;4.388;2023-05-15T22:44:06;102032.94;;;15.71;45.68
21547;BME280;41275;51.912;4.388;2023-05-15T22:49:27;102035.41;;;15.73;45.82
21547;BME280;41275;51.912;4.388;2023-05-15T22:54:48;102044.31;;;15.66;45.62
21547;BME280;41275;51.912;4.388;2023-05-15T23:00:10;102041.72;;;15.60;45.97
21547;BME280;41275;51.912;4.388;2023-05-15T23:05:32;102049.16;;;15.58;45.76
21547;BME280;41275;51.912;4.388;2023-05-15T23:10:53;102048.34;;;15.57;45.34
21547;BME280;41275;51.912;4.388;2023-05-15T23:16:15;102055.75;;;15.55;45.56
21547;BME280;41275;51.912;4.388;2023-05-15T23:21:37;102057.84;;;15.53;45.17
21547;BME280;41275;51.912;4.388;2023-05-15T23:26:58;102054.22;;;15.47;45.36
21547;BME280;41275;51.912;4.388;2023-05-15T23:32:19;102051.19;;;15.44;45.37
21547;BME280;41275;51.912;4.388;2023-05-15T23:37:41;102047.38;;;15.40;45.25
21547;BME280;41275;51.912;4.388;2023-05-15T23:43:02;102051.53;;;15.36;45.29
21547;BME280;41275;51.912;4.388;2023-05-15T23:48:23;102048.50;;;15.32;45.24
21547;BME280;41275;51.912;4.388;2023-05-15T23:53:45;102051.19;;;15.32;45.24
21547;BME280;41275;51.912;4.388;2023-05-15T23:59:06;102045.97;;;15.26;45.33
